createdAt,value
2016-09-01T00:00:07.119Z,62.8
2016-09-01T00:00:32.250Z,62.7
2016-09-01T00:00:57.529Z,63.2
2016-09-01T00:01:23.028Z,63.4
2016-09-01T00:01:47.180Z,62.9
2016-09-01T00:02:11.345Z,63.4
2016-09-01T00:02:35.645Z,63.2
2016-09-01T00:03:01.977Z,62.6
2016-09-01T00:03:26.105Z,62.6
2016-09-01T00:03:50.287Z,62.7
2016-09-01T00:04:14.451Z,62.4
2016-09-01T00:04:38.598Z,62.4
2016-09-01T00:05:02.773Z,62.6
2016-09-01T00:05:26.905Z,62.7
2016-09-01T00:05:51.062Z,62.6
2016-09-01T00:06:15.192Z,62
2016-09-01T00:06:39.348Z,62.4
2016-09-01T00:07:03.515Z,62.4
2016-09-01T00:07:27.654Z,62
2016-09-01T00:07:51.789Z,62
2016-09-01T00:08:15.940Z,62.4
2016-09-01T00:08:40.101Z,62.7
2016-09-01T00:09:04.344Z,62.4
2016-09-01T00:09:28.457Z,62.8
2016-09-01T00:09:52.667Z,62.6
2016-09-01T00:10:16.849Z,62.5
2016-09-01T00:10:40.989Z,62.1
2016-09-01T00:11:05.135Z,62.5
2016-09-01T00:11:29.301Z,62.6
2016-09-01T00:11:53.441Z,62.3
2016-09-01T00:12:17.592Z,62.4
2016-09-01T00:12:41.733Z,62.3
2016-09-01T00:13:05.916Z,62.7
2016-09-01T00:13:30.065Z,62.7
2016-09-01T00:13:54.206Z,62.7
2016-09-01T00:14:18.360Z,62.7
2016-09-01T00:14:42.491Z,62.7
2016-09-01T00:15:06.957Z,62.5
2016-09-01T00:15:31.715Z,62.6
2016-09-01T00:15:55.868Z,62.7
2016-09-01T00:16:20.025Z,62.5
2016-09-01T00:16:44.168Z,62.5
2016-09-01T00:17:08.316Z,62.7
2016-09-01T00:17:32.465Z,62.9
2016-09-01T00:17:56.598Z,62.5
2016-09-01T00:18:20.760Z,63.2
2016-09-01T00:18:44.894Z,63.4
2016-09-01T00:19:09.045Z,63.2
2016-09-01T00:19:33.204Z,63.1
2016-09-01T00:19:57.354Z,63.3
2016-09-01T00:20:21.525Z,63.1
2016-09-01T00:20:45.689Z,62.9
2016-09-01T00:21:09.828Z,62.9
2016-09-01T00:21:33.976Z,63.1
2016-09-01T00:21:58.106Z,63.1
2016-09-01T00:22:22.236Z,63.3
2016-09-01T00:22:46.391Z,63.2
2016-09-01T00:23:10.543Z,63.8
2016-09-01T00:23:34.674Z,63.6
2016-09-01T00:23:58.820Z,63.8
2016-09-01T00:24:22.991Z,63.6
2016-09-01T00:24:47.127Z,63.6
2016-09-01T00:25:11.274Z,63.6
2016-09-01T00:25:35.426Z,63.4
2016-09-01T00:25:59.575Z,63.4
2016-09-01T00:26:23.735Z,63.9
2016-09-01T00:26:47.901Z,63.5
2016-09-01T00:27:12.058Z,63.4
2016-09-01T00:27:36.188Z,63.4
2016-09-01T00:28:00.319Z,63.8
2016-09-01T00:28:24.472Z,62.9
2016-09-01T00:28:48.604Z,63
2016-09-01T00:29:12.750Z,63.1
2016-09-01T00:29:36.887Z,63
2016-09-01T00:30:01.053Z,63.7
2016-09-01T00:30:25.215Z,63.1
2016-09-01T00:30:49.355Z,62.9
2016-09-01T00:31:13.509Z,63
2016-09-01T00:31:37.680Z,63.2
2016-09-01T00:32:01.830Z,63.1
2016-09-01T00:32:25.994Z,63
2016-09-01T00:32:50.164Z,62.7
2016-09-01T00:33:14.319Z,63
2016-09-01T00:33:38.484Z,62.7
2016-09-01T00:34:02.651Z,63.4
2016-09-01T00:34:26.817Z,63.3
2016-09-01T00:34:50.965Z,63.2
2016-09-01T00:35:15.181Z,63.7
2016-09-01T00:35:39.346Z,63.6
2016-09-01T00:36:03.495Z,63.8
2016-09-01T00:36:27.663Z,63.3
2016-09-01T00:36:51.845Z,63.7
2016-09-01T00:37:16.000Z,63.6
2016-09-01T00:37:40.155Z,63.6
2016-09-01T00:38:04.319Z,63.4
2016-09-01T00:38:28.478Z,63.6
2016-09-01T00:38:52.644Z,63.8
2016-09-01T00:39:16.787Z,63
2016-09-01T00:39:40.968Z,63
2016-09-01T00:40:05.128Z,62.8
2016-09-01T00:40:29.267Z,62.9
2016-09-01T00:40:53.396Z,63.4
2016-09-01T00:41:17.576Z,63.4
2016-09-01T00:41:41.730Z,63.3
2016-09-01T00:42:05.856Z,63.9
2016-09-01T00:42:30.011Z,63.9
2016-09-01T00:42:54.163Z,63.8
2016-09-01T00:43:18.329Z,63.4
2016-09-01T00:43:42.464Z,63.5
2016-09-01T00:44:06.616Z,63.5
2016-09-01T00:44:30.782Z,63.7
2016-09-01T00:44:54.971Z,63.7
2016-09-01T00:45:19.118Z,63.6
2016-09-01T00:45:43.309Z,63.5
2016-09-01T00:46:07.505Z,63.2
2016-09-01T00:46:31.660Z,63.3
2016-09-01T00:46:55.844Z,63.5
2016-09-01T00:47:20.008Z,63.5
2016-09-01T00:47:44.154Z,63.7
2016-09-01T00:48:08.297Z,63.5
2016-09-01T00:48:32.463Z,63.5
2016-09-01T00:48:56.605Z,63.7
2016-09-01T00:49:20.762Z,63.3
2016-09-01T00:49:44.930Z,63
2016-09-01T00:50:09.103Z,63
2016-09-01T00:50:33.468Z,63.6
2016-09-01T00:50:57.615Z,63.6
2016-09-01T00:51:21.793Z,63.4
2016-09-01T00:51:45.941Z,63
2016-09-01T00:52:10.124Z,62.8
2016-09-01T00:52:34.271Z,62.8
2016-09-01T00:52:58.415Z,63.8
2016-09-01T00:53:22.585Z,63.7
2016-09-01T00:53:46.750Z,63.8
2016-09-01T00:54:10.912Z,63.8
2016-09-01T00:54:35.077Z,63.8
2016-09-01T00:54:59.248Z,63.7
2016-09-01T00:55:23.649Z,63.3
2016-09-01T00:55:47.815Z,63.1
2016-09-01T00:56:11.987Z,63.6
2016-09-01T00:56:36.146Z,63.5
2016-09-01T00:57:00.287Z,63.7
2016-09-01T00:57:24.434Z,63.6
2016-09-01T00:57:48.599Z,63.6
2016-09-01T00:58:12.748Z,63.6
2016-09-01T00:58:36.902Z,63.6
2016-09-01T00:59:01.063Z,63.5
2016-09-01T00:59:25.221Z,63.6
2016-09-01T00:59:49.361Z,63.3
2016-09-01T01:00:14.832Z,63.3
2016-09-01T01:00:38.988Z,63.2
2016-09-01T01:01:03.162Z,63.8
2016-09-01T01:01:27.313Z,63.3
2016-09-01T01:01:51.472Z,63.6
2016-09-01T01:02:15.662Z,63.3
2016-09-01T01:02:39.828Z,63.6
2016-09-01T01:03:03.967Z,63.2
2016-09-01T01:03:28.096Z,63.2
2016-09-01T01:03:52.249Z,63.6
2016-09-01T01:04:16.427Z,63.6
2016-09-01T01:04:40.583Z,63.3
2016-09-01T01:05:04.931Z,63
2016-09-01T01:05:29.118Z,63
2016-09-01T01:05:53.293Z,63
2016-09-01T01:06:17.430Z,63
2016-09-01T01:06:41.603Z,63.1
2016-09-01T01:07:05.760Z,63.5
2016-09-01T01:07:29.930Z,63.6
2016-09-01T01:07:54.081Z,63.7
2016-09-01T01:08:18.220Z,63.7
2016-09-01T01:08:42.385Z,63.3
2016-09-01T01:09:06.566Z,63.6
2016-09-01T01:09:30.714Z,63.6
2016-09-01T01:09:54.859Z,63.2
2016-09-01T01:10:19.171Z,63.1
2016-09-01T01:10:43.325Z,63
2016-09-01T01:11:07.472Z,63.5
2016-09-01T01:11:31.640Z,63.8
2016-09-01T01:11:55.799Z,63.7
2016-09-01T01:12:19.963Z,63.5
2016-09-01T01:12:44.123Z,63.5
2016-09-01T01:13:08.260Z,63.7
2016-09-01T01:13:32.392Z,63.6
2016-09-01T01:13:56.536Z,63.6
2016-09-01T01:14:20.699Z,63.7
2016-09-01T01:14:44.851Z,63.8
2016-09-01T01:15:08.996Z,63.7
2016-09-01T01:15:33.279Z,63.8
2016-09-01T01:15:57.434Z,63.4
2016-09-01T01:16:21.597Z,63.8
2016-09-01T01:16:45.734Z,63.6
2016-09-01T01:17:09.882Z,63.8
2016-09-01T01:17:34.056Z,63.8
2016-09-01T01:17:58.207Z,63.6
2016-09-01T01:18:22.363Z,63.3
2016-09-01T01:18:46.510Z,64.2
2016-09-01T01:19:10.678Z,64.4
2016-09-01T01:19:34.839Z,64.1
2016-09-01T01:19:58.979Z,63.7
2016-09-01T01:20:23.549Z,64.2
2016-09-01T01:20:47.717Z,63.9
2016-09-01T01:21:11.873Z,63.9
2016-09-01T01:21:36.030Z,64.1
2016-09-01T01:22:00.160Z,64
2016-09-01T01:22:24.310Z,64.2
2016-09-01T01:22:48.458Z,64.2
2016-09-01T01:23:12.601Z,64.1
2016-09-01T01:23:36.735Z,64.3
2016-09-01T01:24:00.871Z,63.8
2016-09-01T01:24:25.012Z,63.6
2016-09-01T01:24:49.172Z,64
2016-09-01T01:25:13.307Z,64
2016-09-01T01:25:37.468Z,64.2
2016-09-01T01:26:01.610Z,64.2
2016-09-01T01:26:25.779Z,63.9
2016-09-01T01:26:49.937Z,64
2016-09-01T01:27:14.076Z,63.8
2016-09-01T01:27:38.235Z,64
2016-09-01T01:28:02.408Z,64
2016-09-01T01:28:26.544Z,64.1
2016-09-01T01:28:50.682Z,64.2
2016-09-01T01:29:14.839Z,64
2016-09-01T01:29:38.977Z,63.9
2016-09-01T01:30:03.128Z,64.2
2016-09-01T01:30:27.280Z,64.5
2016-09-01T01:30:51.437Z,64.5
2016-09-01T01:31:15.558Z,64.3
2016-09-01T01:31:39.741Z,64.4
2016-09-01T01:32:03.198Z,64.6
2016-09-01T01:32:27.357Z,64.5
2016-09-01T01:32:51.491Z,64.4
2016-09-01T01:33:15.649Z,64.7
2016-09-01T01:33:39.800Z,64.7
2016-09-01T01:34:03.950Z,64.8
2016-09-01T01:34:28.101Z,64.8
2016-09-01T01:34:52.267Z,64.5
2016-09-01T01:35:16.455Z,64.7
2016-09-01T01:35:40.602Z,64.6
2016-09-01T01:36:04.759Z,64.7
2016-09-01T01:36:28.924Z,64.4
2016-09-01T01:36:53.119Z,64.8
2016-09-01T01:37:17.249Z,64.9
2016-09-01T01:37:41.417Z,64.3
2016-09-01T01:38:05.558Z,64.2
2016-09-01T01:38:29.726Z,64.3
2016-09-01T01:38:53.875Z,64.6
2016-09-01T01:39:18.010Z,64.4
2016-09-01T01:39:42.145Z,64.5
2016-09-01T01:40:06.443Z,64.8
2016-09-01T01:40:30.608Z,64.4
2016-09-01T01:40:54.796Z,64.4
2016-09-01T01:41:18.951Z,64.7
2016-09-01T01:41:43.120Z,64.8
2016-09-01T01:42:07.280Z,64.8
2016-09-01T01:42:31.441Z,64.4
2016-09-01T01:42:55.606Z,64.8
2016-09-01T01:43:19.772Z,64.6
2016-09-01T01:43:43.929Z,64.5
2016-09-01T01:44:08.083Z,64.5
2016-09-01T01:44:32.233Z,64.6
2016-09-01T01:44:56.357Z,64.7
2016-09-01T01:45:21.310Z,64.6
2016-09-01T01:45:45.450Z,64.8
2016-09-01T01:46:09.613Z,64.4
2016-09-01T01:46:33.783Z,64.7
2016-09-01T01:46:57.924Z,64.8
2016-09-01T01:47:22.097Z,64.6
2016-09-01T01:47:46.256Z,64.6
2016-09-01T01:48:10.412Z,64.8
2016-09-01T01:48:34.550Z,64.8
2016-09-01T01:48:58.699Z,64.6
2016-09-01T01:49:22.859Z,64.7
2016-09-01T01:49:46.995Z,64.7
2016-09-01T01:50:11.314Z,64.8
2016-09-01T01:50:35.451Z,64.8
2016-09-01T01:50:59.615Z,64.8
2016-09-01T01:51:23.765Z,64.5
2016-09-01T01:51:47.902Z,64.5
2016-09-01T01:52:12.066Z,64.4
2016-09-01T01:52:36.215Z,64.3
2016-09-01T01:53:00.388Z,64.6
2016-09-01T01:53:24.523Z,64.6
2016-09-01T01:53:48.684Z,64.6
2016-09-01T01:54:12.858Z,64.7
2016-09-01T01:54:37.020Z,64.5
2016-09-01T01:55:01.165Z,64.5
2016-09-01T01:55:25.322Z,64.7
2016-09-01T01:55:49.453Z,64.7
2016-09-01T01:56:13.608Z,64.6
2016-09-01T01:56:37.754Z,64.8
2016-09-01T01:57:01.923Z,64.8
2016-09-01T01:57:26.103Z,64.8
2016-09-01T01:57:50.235Z,64.6
2016-09-01T01:58:14.390Z,64.8
2016-09-01T01:58:38.569Z,64.4
2016-09-01T01:59:02.742Z,64.4
2016-09-01T01:59:26.903Z,64.8
2016-09-01T01:59:51.057Z,64.6
2016-09-01T02:00:15.211Z,64.8
2016-09-01T02:00:39.374Z,64.6
2016-09-01T02:01:03.512Z,64.4
2016-09-01T02:01:27.682Z,64.6
2016-09-01T02:01:51.851Z,64.7
2016-09-01T02:02:16.001Z,64.5
2016-09-01T02:02:40.150Z,64.3
2016-09-01T02:03:04.339Z,64.5
2016-09-01T02:03:28.504Z,64.4
2016-09-01T02:03:52.665Z,64.7
2016-09-01T02:04:16.818Z,64.6
2016-09-01T02:04:40.956Z,65
2016-09-01T02:05:05.162Z,64.8
2016-09-01T02:05:29.342Z,64.8
2016-09-01T02:05:53.488Z,64.8
2016-09-01T02:06:17.625Z,64.7
2016-09-01T02:06:41.779Z,64.8
2016-09-01T02:07:05.961Z,65
2016-09-01T02:07:30.120Z,64.8
2016-09-01T02:07:54.288Z,65.3
2016-09-01T02:08:18.447Z,65
2016-09-01T02:08:42.577Z,65.1
2016-09-01T02:09:06.742Z,65.1
2016-09-01T02:09:30.893Z,65.1
2016-09-01T02:09:55.066Z,64.7
2016-09-01T02:10:19.515Z,64.8
2016-09-01T02:10:43.663Z,64.7
2016-09-01T02:11:07.824Z,64.8
2016-09-01T02:11:32.033Z,64.8
2016-09-01T02:11:58.169Z,64.9
2016-09-01T02:12:22.301Z,64.7
2016-09-01T02:12:46.451Z,64.7
2016-09-01T02:13:10.587Z,64.8
2016-09-01T02:13:34.756Z,64.7
2016-09-01T02:13:59.724Z,64.7
2016-09-01T02:14:23.855Z,64.9
2016-09-01T02:14:48.025Z,64.6
2016-09-01T02:15:12.174Z,64.9
2016-09-01T02:15:36.315Z,64.7
2016-09-01T02:16:00.474Z,64.8
2016-09-01T02:16:24.633Z,64.9
2016-09-01T02:16:48.770Z,64.7
2016-09-01T02:17:12.908Z,64.7
2016-09-01T02:17:37.091Z,65.1
2016-09-01T02:18:01.242Z,64.6
2016-09-01T02:18:25.398Z,64.8
2016-09-01T02:18:49.554Z,64.8
2016-09-01T02:19:13.713Z,64.6
2016-09-01T02:19:37.863Z,64.4
2016-09-01T02:20:02.026Z,64.3
2016-09-01T02:20:26.185Z,64.4
2016-09-01T02:20:50.343Z,64.3
2016-09-01T02:21:14.494Z,64.5
2016-09-01T02:21:38.666Z,64.8
2016-09-01T02:22:02.822Z,64.4
2016-09-01T02:22:26.948Z,64.6
2016-09-01T02:22:51.094Z,64.4
2016-09-01T02:23:15.225Z,64.4
2016-09-01T02:23:39.350Z,64.6
2016-09-01T02:24:03.516Z,64.5
2016-09-01T02:24:27.683Z,64.7
2016-09-01T02:24:51.811Z,64.6
2016-09-01T02:25:15.956Z,64.3
2016-09-01T02:25:40.124Z,64.5
2016-09-01T02:26:04.275Z,64.4
2016-09-01T02:26:28.417Z,64.6
2016-09-01T02:26:52.590Z,64.4
2016-09-01T02:27:16.748Z,64.6
2016-09-01T02:27:40.888Z,64.4
2016-09-01T02:28:05.039Z,64.4
2016-09-01T02:28:29.209Z,64.4
2016-09-01T02:28:53.376Z,64.7
2016-09-01T02:29:17.545Z,64.6
2016-09-01T02:29:41.700Z,64.5
2016-09-01T02:30:05.836Z,64.8
2016-09-01T02:30:29.967Z,64.8
2016-09-01T02:30:54.121Z,64.8
2016-09-01T02:31:18.259Z,64.8
2016-09-01T02:31:42.413Z,64.8
2016-09-01T02:32:06.574Z,64.7
2016-09-01T02:32:30.718Z,64.6
2016-09-01T02:32:54.845Z,64.8
2016-09-01T02:33:18.984Z,64.8
2016-09-01T02:33:43.138Z,64.7
2016-09-01T02:34:07.283Z,64.6
2016-09-01T02:34:31.430Z,64.4
2016-09-01T02:34:55.650Z,64.5
2016-09-01T02:35:19.870Z,64.7
2016-09-01T02:35:44.041Z,64.8
2016-09-01T02:36:08.174Z,64.8
2016-09-01T02:36:32.322Z,64.6
2016-09-01T02:36:56.492Z,64.6
2016-09-01T02:37:20.621Z,64.6
2016-09-01T02:37:44.775Z,64.7
2016-09-01T02:38:08.938Z,64.8
2016-09-01T02:38:33.105Z,64.8
2016-09-01T02:38:57.251Z,64.7
2016-09-01T02:39:21.382Z,64.8
2016-09-01T02:39:45.525Z,64.8
2016-09-01T02:40:09.687Z,64.8
2016-09-01T02:40:33.945Z,64.7
2016-09-01T02:40:58.078Z,64.8
2016-09-01T02:41:22.226Z,64.6
2016-09-01T02:41:46.388Z,64.8
2016-09-01T02:42:10.523Z,64.5
2016-09-01T02:42:34.666Z,64.6
2016-09-01T02:42:58.833Z,64.6
2016-09-01T02:43:22.975Z,64.7
2016-09-01T02:43:47.126Z,64.4
2016-09-01T02:44:11.269Z,64.6
2016-09-01T02:44:35.454Z,64.8
2016-09-01T02:44:59.636Z,64.8
2016-09-01T02:45:23.775Z,64.7
2016-09-01T02:45:47.929Z,64.4
2016-09-01T02:46:12.071Z,64.4
2016-09-01T02:46:36.210Z,64.6
2016-09-01T02:47:00.350Z,64.7
2016-09-01T02:47:24.512Z,64.7
2016-09-01T02:47:48.667Z,64.8
2016-09-01T02:48:12.811Z,64.6
2016-09-01T02:48:36.956Z,64.3
2016-09-01T02:49:01.113Z,64.4
2016-09-01T02:49:25.279Z,64.4
2016-09-01T02:49:49.433Z,64.4
2016-09-01T02:50:13.562Z,64.4
2016-09-01T02:50:37.700Z,64.7
2016-09-01T02:51:01.838Z,64.4
2016-09-01T02:51:25.981Z,64.6
2016-09-01T02:51:50.142Z,64.5
2016-09-01T02:52:14.285Z,64.3
2016-09-01T02:52:38.446Z,64.5
2016-09-01T02:53:02.591Z,64.7
2016-09-01T02:53:26.737Z,64.5
2016-09-01T02:53:50.889Z,64.5
2016-09-01T02:54:15.059Z,64.7
2016-09-01T02:54:39.205Z,64.8
2016-09-01T02:55:03.707Z,64.8
2016-09-01T02:55:27.844Z,64.4
2016-09-01T02:55:52.002Z,64.8
2016-09-01T02:56:16.151Z,64.7
2016-09-01T02:56:40.312Z,64.5
2016-09-01T02:57:04.474Z,64.6
2016-09-01T02:57:28.643Z,64.7
2016-09-01T02:57:52.791Z,64.8
2016-09-01T02:58:16.941Z,64.6
2016-09-01T02:58:41.085Z,64.8
2016-09-01T02:59:05.249Z,64.8
2016-09-01T02:59:29.399Z,64.8
2016-09-01T02:59:53.568Z,64.3
2016-09-01T03:00:17.734Z,64.3
2016-09-01T03:00:41.883Z,64.6
2016-09-01T03:01:06.031Z,64.5
2016-09-01T03:01:30.166Z,64.4
2016-09-01T03:01:54.310Z,64.4
2016-09-01T03:02:18.458Z,64.7
2016-09-01T03:02:42.610Z,64.7
2016-09-01T03:03:06.750Z,64.4
2016-09-01T03:03:30.875Z,64.5
2016-09-01T03:03:55.027Z,64.9
2016-09-01T03:04:19.174Z,64.7
2016-09-01T03:04:43.358Z,64.9
2016-09-01T03:05:07.517Z,64.9
2016-09-01T03:05:31.642Z,64.6
2016-09-01T03:05:55.766Z,64.4
2016-09-01T03:06:19.939Z,64.7
2016-09-01T03:06:44.151Z,64.6
2016-09-01T03:07:08.292Z,64.4
2016-09-01T03:07:32.451Z,64.5
2016-09-01T03:07:56.616Z,64.7
2016-09-01T03:08:20.771Z,64.8
2016-09-01T03:08:44.893Z,64.8
2016-09-01T03:09:09.054Z,64.7
2016-09-01T03:09:33.229Z,64.7
2016-09-01T03:09:57.380Z,64.8
2016-09-01T03:10:21.514Z,64.4
2016-09-01T03:10:45.665Z,64.7
2016-09-01T03:11:09.807Z,64.8
2016-09-01T03:11:33.980Z,64.7
2016-09-01T03:11:58.115Z,64.3
2016-09-01T03:12:22.257Z,64.3
2016-09-01T03:12:46.429Z,64.4
2016-09-01T03:13:10.564Z,64.7
2016-09-01T03:13:34.729Z,64.7
2016-09-01T03:13:58.882Z,64.3
2016-09-01T03:14:23.028Z,64.5
2016-09-01T03:14:47.183Z,64.4
2016-09-01T03:15:11.325Z,64.5
2016-09-01T03:15:35.466Z,64.6
2016-09-01T03:15:59.621Z,64.5
2016-09-01T03:16:23.768Z,64.7
2016-09-01T03:16:47.906Z,64.7
2016-09-01T03:17:12.070Z,64.4
2016-09-01T03:17:36.225Z,64.7
2016-09-01T03:18:00.355Z,64.4
2016-09-01T03:18:24.523Z,64.8
2016-09-01T03:18:48.690Z,64.7
2016-09-01T03:19:12.849Z,64.7
2016-09-01T03:19:37.005Z,64.6
2016-09-01T03:20:01.150Z,64.8
2016-09-01T03:20:25.458Z,64.6
2016-09-01T03:20:49.591Z,64.8
2016-09-01T03:21:13.736Z,64.7
2016-09-01T03:21:37.911Z,64.8
2016-09-01T03:22:02.085Z,64.6
2016-09-01T03:22:26.224Z,64.6
2016-09-01T03:22:50.352Z,64.8
2016-09-01T03:23:14.550Z,65
2016-09-01T03:23:38.687Z,64.8
2016-09-01T03:24:02.817Z,65.4
2016-09-01T03:24:26.993Z,65.3
2016-09-01T03:24:51.133Z,65.3
2016-09-01T03:25:15.284Z,65.3
2016-09-01T03:25:39.419Z,65
2016-09-01T03:26:03.579Z,65.4
2016-09-01T03:26:27.706Z,65.5
2016-09-01T03:26:51.846Z,65.4
2016-09-01T03:27:15.977Z,65
2016-09-01T03:27:40.138Z,65.1
2016-09-01T03:28:04.287Z,64.8
2016-09-01T03:28:28.460Z,64.8
2016-09-01T03:28:52.601Z,65.4
2016-09-01T03:29:16.745Z,65.3
2016-09-01T03:29:40.916Z,65.4
2016-09-01T03:30:05.743Z,65.4
2016-09-01T03:30:30.033Z,65.3
2016-09-01T03:30:54.198Z,65.3
2016-09-01T03:31:18.327Z,65.4
2016-09-01T03:31:42.464Z,65.1
2016-09-01T03:32:06.612Z,65.4
2016-09-01T03:32:30.765Z,65.3
2016-09-01T03:32:54.921Z,65.6
2016-09-01T03:33:19.066Z,65.2
2016-09-01T03:33:43.212Z,64.9
2016-09-01T03:34:07.370Z,65.7
2016-09-01T03:34:31.498Z,65.7
2016-09-01T03:34:55.647Z,65.1
2016-09-01T03:35:19.833Z,65.1
2016-09-01T03:35:44.698Z,65.3
2016-09-01T03:36:08.806Z,65
2016-09-01T03:36:32.945Z,65.4
2016-09-01T03:36:57.130Z,65.6
2016-09-01T03:37:21.308Z,65.5
2016-09-01T03:37:45.434Z,65.6
2016-09-01T03:38:09.602Z,65.6
2016-09-01T03:38:33.782Z,65.2
2016-09-01T03:38:57.920Z,65.2
2016-09-01T03:39:22.054Z,65.3
2016-09-01T03:39:46.213Z,65.5
2016-09-01T03:40:10.396Z,65.5
2016-09-01T03:40:34.528Z,65.4
2016-09-01T03:40:58.660Z,65.4
2016-09-01T03:41:22.810Z,65.3
2016-09-01T03:41:46.989Z,65.2
2016-09-01T03:42:11.164Z,65.4
2016-09-01T03:42:35.299Z,65.6
2016-09-01T03:42:59.435Z,65.5
2016-09-01T03:43:23.587Z,65.6
2016-09-01T03:43:47.719Z,65.9
2016-09-01T03:44:11.897Z,65.7
2016-09-01T03:44:36.065Z,65.7
2016-09-01T03:45:00.222Z,65.8
2016-09-01T03:45:24.378Z,66.1
2016-09-01T03:45:48.673Z,66
2016-09-01T03:46:12.847Z,66
2016-09-01T03:46:36.985Z,65.8
2016-09-01T03:47:01.191Z,65.7
2016-09-01T03:47:25.359Z,65.7
2016-09-01T03:47:49.525Z,65.5
2016-09-01T03:48:13.674Z,65.6
2016-09-01T03:48:37.844Z,65.5
2016-09-01T03:49:01.989Z,66
2016-09-01T03:49:26.145Z,65.9
2016-09-01T03:49:50.284Z,65.9
2016-09-01T03:50:14.427Z,65.7
2016-09-01T03:50:38.584Z,66
2016-09-01T03:51:02.709Z,66.3
2016-09-01T03:51:26.868Z,65.8
2016-09-01T03:51:51.030Z,65.8
2016-09-01T03:52:15.187Z,65.9
2016-09-01T03:52:39.323Z,65.8
2016-09-01T03:53:03.481Z,65.6
2016-09-01T03:53:28.490Z,65.8
2016-09-01T03:53:52.636Z,65.7
2016-09-01T03:54:16.774Z,65.6
2016-09-01T03:54:40.932Z,66.2
2016-09-01T03:55:05.148Z,65.6
2016-09-01T03:55:29.306Z,65.6
2016-09-01T03:55:53.452Z,65.9
2016-09-01T03:56:17.603Z,65.9
2016-09-01T03:56:41.763Z,65.8
2016-09-01T03:57:05.896Z,65.7
2016-09-01T03:57:30.047Z,65.6
2016-09-01T03:57:54.189Z,66
2016-09-01T03:58:18.349Z,65.8
2016-09-01T03:58:42.497Z,65.8
2016-09-01T03:59:06.665Z,65.9
2016-09-01T03:59:30.841Z,65.6
2016-09-01T03:59:55.004Z,65.5
2016-09-01T04:00:19.140Z,65.7
2016-09-01T04:00:43.326Z,66
2016-09-01T04:01:07.469Z,65.7
2016-09-01T04:01:31.635Z,65.7
2016-09-01T04:01:55.797Z,65.9
2016-09-01T04:02:19.962Z,66
2016-09-01T04:02:44.092Z,65.9
2016-09-01T04:03:08.263Z,66
2016-09-01T04:03:32.407Z,65.8
2016-09-01T04:03:56.571Z,65.8
2016-09-01T04:04:20.735Z,65.6
2016-09-01T04:04:44.878Z,65.3
2016-09-01T04:05:09.191Z,65.5
2016-09-01T04:05:33.341Z,65.3
2016-09-01T04:05:57.492Z,65.4
2016-09-01T04:06:21.634Z,65.3
2016-09-01T04:06:45.803Z,65.1
2016-09-01T04:07:09.962Z,65.8
2016-09-01T04:07:34.096Z,65.9
2016-09-01T04:07:58.230Z,66.2
2016-09-01T04:08:22.388Z,66
2016-09-01T04:08:46.560Z,65.9
2016-09-01T04:09:10.713Z,65.6
2016-09-01T04:09:34.861Z,65.5
2016-09-01T04:09:59.026Z,65.4
2016-09-01T04:10:23.198Z,65.2
2016-09-01T04:10:47.328Z,65.6
2016-09-01T04:11:11.500Z,65.7
2016-09-01T04:11:35.675Z,65.7
2016-09-01T04:11:59.833Z,65.4
2016-09-01T04:12:24.149Z,65.4
2016-09-01T04:12:48.303Z,65.5
2016-09-01T04:13:12.470Z,65.8
2016-09-01T04:13:36.614Z,65.9
2016-09-01T04:14:00.778Z,65.7
2016-09-01T04:14:24.927Z,65.7
2016-09-01T04:14:49.108Z,65.7
2016-09-01T04:15:13.259Z,65.6
2016-09-01T04:15:37.403Z,65.6
2016-09-01T04:16:01.557Z,65.4
2016-09-01T04:16:25.721Z,65.7
2016-09-01T04:16:49.858Z,65.4
2016-09-01T04:17:14.010Z,65.6
2016-09-01T04:17:38.165Z,65.4
2016-09-01T04:18:02.320Z,65.6
2016-09-01T04:18:26.455Z,65.8
2016-09-01T04:18:50.595Z,65.7
2016-09-01T04:19:14.768Z,65.6
2016-09-01T04:19:38.923Z,66.1
2016-09-01T04:20:03.080Z,65.8
2016-09-01T04:20:27.233Z,66
2016-09-01T04:20:51.396Z,66
2016-09-01T04:21:15.525Z,66
2016-09-01T04:21:39.678Z,65.6
2016-09-01T04:22:03.831Z,65.6
2016-09-01T04:22:27.984Z,65.9
2016-09-01T04:22:52.107Z,65.6
2016-09-01T04:23:16.319Z,66
2016-09-01T04:23:40.478Z,66.1
2016-09-01T04:24:04.645Z,66
2016-09-01T04:24:28.802Z,65.8
2016-09-01T04:24:52.973Z,65.8
2016-09-01T04:25:17.139Z,65.8
2016-09-01T04:25:41.290Z,65.9
2016-09-01T04:26:05.468Z,66
2016-09-01T04:26:29.629Z,65.6
2016-09-01T04:26:53.779Z,65.4
2016-09-01T04:27:17.915Z,65.5
2016-09-01T04:27:42.048Z,65.5
2016-09-01T04:28:06.208Z,65.5
2016-09-01T04:28:30.363Z,65.3
2016-09-01T04:28:54.499Z,65.3
2016-09-01T04:29:18.652Z,65.4
2016-09-01T04:29:42.819Z,65.3
2016-09-01T04:30:06.997Z,65.3
2016-09-01T04:30:31.198Z,65.3
2016-09-01T04:30:55.356Z,65.3
2016-09-01T04:31:19.511Z,65.3
2016-09-01T04:31:43.669Z,65.3
2016-09-01T04:32:07.845Z,65.3
2016-09-01T04:32:31.991Z,65.4
2016-09-01T04:32:56.125Z,65.3
2016-09-01T04:33:20.290Z,65.4
2016-09-01T04:33:44.434Z,65.4
2016-09-01T04:34:08.610Z,65.3
2016-09-01T04:34:32.778Z,65.5
2016-09-01T04:34:56.928Z,65.7
2016-09-01T04:35:21.228Z,65.5
2016-09-01T04:35:45.391Z,65.5
2016-09-01T04:36:09.533Z,65.7
2016-09-01T04:36:33.723Z,65.6
2016-09-01T04:36:57.878Z,65.6
2016-09-01T04:37:22.000Z,65.8
2016-09-01T04:37:46.148Z,65.2
2016-09-01T04:38:10.309Z,65.8
2016-09-01T04:38:34.630Z,65.6
2016-09-01T04:39:00.202Z,65.6
2016-09-01T04:39:24.350Z,65.6
2016-09-01T04:39:48.505Z,65.7
2016-09-01T04:40:12.951Z,65.4
2016-09-01T04:40:37.445Z,65.5
2016-09-01T04:41:01.583Z,65.4
2016-09-01T04:41:25.740Z,65.5
2016-09-01T04:41:49.913Z,65.2
2016-09-01T04:42:14.066Z,65.3
2016-09-01T04:42:38.213Z,65.4
2016-09-01T04:43:02.330Z,66
2016-09-01T04:43:26.463Z,65.7
2016-09-01T04:43:50.690Z,66
2016-09-01T04:44:14.835Z,65.7
2016-09-01T04:44:38.974Z,65.6
2016-09-01T04:45:03.146Z,65.3
2016-09-01T04:45:27.389Z,65.2
2016-09-01T04:45:51.544Z,65.5
2016-09-01T04:46:15.718Z,65.9
2016-09-01T04:46:39.862Z,66.1
2016-09-01T04:47:04.013Z,66
2016-09-01T04:47:28.153Z,66.2
2016-09-01T04:47:52.300Z,66.6
2016-09-01T04:48:16.471Z,65.7
2016-09-01T04:48:40.615Z,65.7
2016-09-01T04:49:04.748Z,65.9
2016-09-01T04:49:28.903Z,66.3
2016-09-01T04:49:53.096Z,66.2
2016-09-01T04:50:17.345Z,66.2
2016-09-01T04:50:41.637Z,66.2
2016-09-01T04:51:05.802Z,66
2016-09-01T04:51:29.958Z,66.3
2016-09-01T04:51:54.140Z,66.7
2016-09-01T04:52:18.283Z,66.6
2016-09-01T04:52:42.414Z,66.1
2016-09-01T04:53:06.585Z,66.3
2016-09-01T04:53:30.738Z,65.9
2016-09-01T04:53:54.905Z,66
2016-09-01T04:54:19.037Z,66.1
2016-09-01T04:54:43.187Z,66
2016-09-01T04:55:07.347Z,66.1
2016-09-01T04:55:31.556Z,66.4
2016-09-01T04:55:55.729Z,66.4
2016-09-01T04:56:19.853Z,66.7
2016-09-01T04:56:44.000Z,66.3
2016-09-01T04:57:08.146Z,66.7
2016-09-01T04:57:32.314Z,66.6
2016-09-01T04:57:56.475Z,66.5
2016-09-01T04:58:20.622Z,66.7
2016-09-01T04:58:44.795Z,66.8
2016-09-01T04:59:08.949Z,66.3
2016-09-01T04:59:33.072Z,66.3
2016-09-01T04:59:57.274Z,66.4
2016-09-01T05:00:21.432Z,66.9
2016-09-01T05:00:45.573Z,66.7
2016-09-01T05:01:09.728Z,67
2016-09-01T05:01:33.879Z,66.7
2016-09-01T05:01:58.036Z,66.8
2016-09-01T05:02:22.187Z,66.8
2016-09-01T05:02:46.315Z,67
2016-09-01T05:03:10.475Z,66.9
2016-09-01T05:03:34.601Z,67.1
2016-09-01T05:03:59.192Z,67.1
2016-09-01T05:04:23.354Z,67
2016-09-01T05:04:47.530Z,67.2
2016-09-01T05:05:11.699Z,67.1
2016-09-01T05:05:35.843Z,67.1
2016-09-01T05:05:59.992Z,67.2
2016-09-01T05:06:24.171Z,67.3
2016-09-01T05:06:48.323Z,67.3
2016-09-01T05:07:12.700Z,67.4
2016-09-01T05:07:36.847Z,67.2
2016-09-01T05:08:01.004Z,67
2016-09-01T05:08:25.145Z,66.9
2016-09-01T05:08:50.174Z,67.2
2016-09-01T05:09:15.276Z,67.4
2016-09-01T05:09:39.506Z,67.2
2016-09-01T05:10:03.927Z,67.4
2016-09-01T05:10:28.639Z,67.1
2016-09-01T05:10:52.798Z,67
2016-09-01T05:11:16.970Z,67
2016-09-01T05:11:41.112Z,67.1
2016-09-01T05:12:05.254Z,67.2
2016-09-01T05:12:29.371Z,67.2
2016-09-01T05:12:53.538Z,67.2
2016-09-01T05:13:17.695Z,67.7
2016-09-01T05:13:41.870Z,67.3
2016-09-01T05:14:06.017Z,67.4
2016-09-01T05:14:30.146Z,67.5
2016-09-01T05:14:54.353Z,67
2016-09-01T05:15:18.608Z,67.2
2016-09-01T05:15:42.846Z,67.3
2016-09-01T05:16:07.084Z,67.2
2016-09-01T05:16:31.285Z,67.6
2016-09-01T05:16:55.450Z,67.7
2016-09-01T05:17:19.594Z,67.4
2016-09-01T05:17:44.200Z,67.7
2016-09-01T05:18:11.189Z,67.1
2016-09-01T05:18:35.572Z,67.4
2016-09-01T05:18:59.923Z,67.2
2016-09-01T05:19:24.323Z,67.4
2016-09-01T05:19:48.632Z,67.2
2016-09-01T05:20:13.015Z,67.5
2016-09-01T05:20:37.176Z,67.7
2016-09-01T05:21:01.373Z,67.6
2016-09-01T05:21:25.713Z,67.2
2016-09-01T05:21:49.880Z,67.3
2016-09-01T05:22:14.028Z,67.4
2016-09-01T05:22:38.250Z,67.6
2016-09-01T05:23:02.393Z,67.6
2016-09-01T05:23:26.557Z,67.2